»·PEaware :: JBU727 KBUF-KDCA

JBU727 :: KBUF-KDCA

FLIGHT INFORMATION

Flight Status: Arrived
Operator:
JetBlue Airways
More flights by this operator :: More flights under this callsign
Pilot: Anonymous 5323 (5323)
Aircraft: MCDONNELL-DOUGLAS MD-88
(MD88)
More flights by this aircraft type
Origin: KBUF Buffalo Niagara Intl
United States
Destination: KDCA Ronald Reagan Washington Natl
United States
More flights between these airports :: More routes between these airports
Route: VAIRS BFD ETG PSB SKILS2
File this flight plan on PilotEdge
Remarks:
Altitude:
(Current/Filed)
27,000ft
Speed:
(Current/Filed)
480kts
Departed: 16-Dec-15 08:03 PM
Arrived: 16-Dec-15 09:01 PM
Distance/Time
Traveled:
257nm/0:58
Distance/Time
To Go:
Arrived

Flight Plot

Page will automatically refresh every two minutes.


Map Options




Map Legend


Flown Route
Filed Route
Departure Airport
Arrival Airport
Navaid (VOR, NDB)
Fix

Horizontal Profiles

Position Reports

Time Latitude Longitude Heading Altitude Ground
Speed
16-Dec-15 19:41 42.935923 -78.731611 140 730ft 0kts
16-Dec-15 19:42 42.935923 -78.731611 140 730ft 0kts
16-Dec-15 19:43 42.935923 -78.731611 140 730ft 0kts
16-Dec-15 19:44 42.935923 -78.731611 140 730ft 0kts
16-Dec-15 19:45 42.935923 -78.731611 140 730ft 0kts
16-Dec-15 19:46 42.935923 -78.731611 140 730ft 0kts
16-Dec-15 19:47 42.935923 -78.731611 140 730ft 0kts
16-Dec-15 19:48 42.935923 -78.731611 140 730ft 0kts
16-Dec-15 19:49 42.935923 -78.731611 140 730ft 0kts
16-Dec-15 19:50 42.935923 -78.731611 140 730ft 0kts
16-Dec-15 19:51 42.935923 -78.731611 140 730ft 0kts
16-Dec-15 19:52 42.935923 -78.731611 140 730ft 0kts
16-Dec-15 19:53 42.936136 -78.731852 140 730ft 6kts
16-Dec-15 19:54 42.936186 -78.732371 12 730ft 4kts
16-Dec-15 19:55 42.939782 -78.732819 0 730ft 12kts
16-Dec-15 19:56 42.942765 -78.736100 306 730ft 19kts
16-Dec-15 19:57 42.945140 -78.740484 306 730ft 21kts
16-Dec-15 19:58 42.946622 -78.741270 125 730ft 0kts
16-Dec-15 19:59 42.927115 -78.710293 149 1517ft 189kts
16-Dec-15 20:00 42.864019 -78.724092 180 3579ft 249kts
16-Dec-15 20:01 42.796192 -78.718779 175 6988ft 244kts
16-Dec-15 20:02 42.729111 -78.709508 177 9978ft 245kts
16-Dec-15 20:03 42.651379 -78.698556 178 11458ft 299kts
16-Dec-15 20:04 42.567945 -78.686781 180 14050ft 306kts
16-Dec-15 20:05 42.482672 -78.674762 181 16381ft 314kts
16-Dec-15 20:06 42.395971 -78.662571 181 18537ft 322kts
16-Dec-15 20:07 42.306135 -78.649974 182 20543ft 330kts
16-Dec-15 20:08 42.213440 -78.637011 183 22385ft 339kts
16-Dec-15 20:09 42.120599 -78.627107 188 24466ft 330kts
16-Dec-15 20:10 42.029680 -78.624905 190 26385ft 324kts
16-Dec-15 20:11 41.942459 -78.622963 190 26965ft 321kts
16-Dec-15 20:12 41.846635 -78.620764 189 26967ft 370kts
16-Dec-15 20:13 41.740587 -78.580656 160 26971ft 447kts
16-Dec-15 20:14 41.634496 -78.491672 159 26958ft 451kts
16-Dec-15 20:15 41.528432 -78.402994 159 26963ft 450kts
16-Dec-15 20:16 41.422467 -78.314741 159 26998ft 449kts
16-Dec-15 20:17 41.316914 -78.227177 159 27017ft 448kts
16-Dec-15 20:18 41.210530 -78.140522 169 27018ft 435kts
16-Dec-15 20:19 41.098508 -78.084258 170 27050ft 432kts
16-Dec-15 20:20 40.985927 -78.027776 170 27063ft 432kts
16-Dec-15 20:21 40.878774 -77.951005 149 27084ft 468kts
16-Dec-15 20:22 40.782345 -77.839548 151 27055ft 464kts
16-Dec-15 20:23 40.684477 -77.728249 151 27056ft 465kts
16-Dec-15 20:24 40.586405 -77.617224 151 27056ft 465kts
16-Dec-15 20:25 40.494187 -77.513231 151 27057ft 464kts
16-Dec-15 20:26 40.396610 -77.403652 150 27067ft 465kts
16-Dec-15 20:27 40.299150 -77.294630 149 27105ft 465kts
16-Dec-15 20:28 40.200538 -77.184668 149 27116ft 465kts
16-Dec-15 20:29 40.102029 -77.075307 149 26384ft 460kts
16-Dec-15 20:30 40.008085 -76.971415 148 23972ft 432kts
16-Dec-15 20:31 39.919071 -76.873097 148 21674ft 411kts
16-Dec-15 20:32 39.834266 -76.779749 148 19463ft 389kts
16-Dec-15 20:33 39.753949 -76.691848 147 17370ft 369kts
16-Dec-15 20:34 39.673973 -76.621868 179 15399ft 327kts
16-Dec-15 20:35 39.584964 -76.624036 187 13612ft 317kts
16-Dec-15 20:36 39.498935 -76.631616 187 12069ft 294kts
16-Dec-15 20:37 39.419951 -76.638806 186 11572ft 307kts
16-Dec-15 20:38 39.335738 -76.646390 186 11046ft 298kts
16-Dec-15 20:39 39.260546 -76.653170 185 10513ft 258kts
16-Dec-15 20:40 39.189314 -76.659592 184 10167ft 258kts
16-Dec-15 20:41 39.131253 -76.709073 218 9389ft 264kts
16-Dec-15 20:42 39.078066 -76.771248 226 7912ft 264kts
16-Dec-15 20:43 39.025025 -76.834083 225 6424ft 262kts
16-Dec-15 20:44 38.976651 -76.896172 253 5987ft 253kts
16-Dec-15 20:45 38.975152 -76.988980 272 4968ft 256kts
16-Dec-15 20:46 39.007360 -77.064053 315 3712ft 252kts
16-Dec-15 20:47 39.057690 -77.126446 317 2964ft 250kts
16-Dec-15 20:48 39.100460 -77.179560 317 2973ft 190kts
16-Dec-15 20:49 39.090029 -77.226966 198 3005ft 187kts
16-Dec-15 20:50 39.039649 -77.242372 182 2867ft 183kts
16-Dec-15 20:51 38.990180 -77.236823 148 2324ft 179kts
16-Dec-15 20:52 38.972522 -77.191733 98 1963ft 178kts
16-Dec-15 20:53 38.949279 -77.138583 139 1615ft 170kts
16-Dec-15 20:54 38.913185 -77.101442 137 1108ft 163kts
16-Dec-15 20:55 38.889468 -77.057681 141 563ft 147kts
16-Dec-15 20:56 38.856190 -77.038136 177 24ft 126kts
16-Dec-15 20:57 38.850376 -77.039058 354 21ft 21kts
16-Dec-15 20:58 38.853177 -77.040904 256 21ft 9kts
16-Dec-15 20:59 38.869286 -77.039571 176 175ft 134kts
16-Dec-15 21:00 38.852748 -77.037855 173 22ft 113kts
16-Dec-15 21:01 38.849707 -77.037580 178 21ft 24kts
16-Dec-15 21:02 38.851598 -77.037713 176 21ft 89kts
16-Dec-15 21:03 38.853563 -77.041500 345 21ft 0kts

Navigation Log

Ident Type
Flight plan parsing failed, navigation log unavailable